createdAt,value
2023-04-22T00:00:17.279Z,12.45
2023-04-22T00:02:47.395Z,12.36
2023-04-22T00:05:18.524Z,12.53
2023-04-22T00:07:48.589Z,12.59
2023-04-22T00:10:17.052Z,12.52
2023-04-22T00:12:45.679Z,12.66
2023-04-22T00:15:14.068Z,12.72
2023-04-22T00:17:42.959Z,12.64
2023-04-22T00:20:13.829Z,12.58
2023-04-22T00:22:42.246Z,12.69
2023-04-22T00:25:10.763Z,12.73
2023-04-22T00:27:39.084Z,12.75
2023-04-22T00:30:08.493Z,12.70
2023-04-22T00:32:36.854Z,12.54
2023-04-22T00:35:05.196Z,12.23
2023-04-22T00:37:35.098Z,12.25
2023-04-22T00:40:03.962Z,12.30
2023-04-22T00:42:32.893Z,12.39
2023-04-22T00:45:02.190Z,12.38
2023-04-22T00:47:32.553Z,12.30
2023-04-22T00:50:02.798Z,12.50
2023-04-22T00:52:31.266Z,12.58
2023-04-22T00:55:02.252Z,12.54
2023-04-22T00:57:32.205Z,12.37
2023-04-22T01:00:01.081Z,12.18
2023-04-22T01:02:30.660Z,12.19
2023-04-22T01:04:58.972Z,12.18
2023-04-22T01:07:27.158Z,12.18
2023-04-22T01:09:55.169Z,12.25
2023-04-22T01:12:24.934Z,12.29
2023-04-22T01:14:53.325Z,12.33
2023-04-22T01:17:22.077Z,12.30
2023-04-22T01:19:50.464Z,12.21
2023-04-22T01:22:19.208Z,12.21
2023-04-22T01:24:48.965Z,12.27
2023-04-22T01:27:17.467Z,12.23
2023-04-22T01:29:45.707Z,12.35
2023-04-22T01:32:14.129Z,12.30
2023-04-22T01:34:42.685Z,12.22
2023-04-22T01:37:10.896Z,12.22
2023-04-22T01:39:39.521Z,12.18
2023-04-22T01:42:10.211Z,12.16
2023-04-22T01:44:38.347Z,12.22
2023-04-22T01:47:06.499Z,12.26
2023-04-22T01:49:35.320Z,12.35
2023-04-22T01:52:03.460Z,12.26
2023-04-22T01:54:31.607Z,12.30
2023-04-22T01:56:59.719Z,12.37
2023-04-22T01:59:29.431Z,12.39
2023-04-22T02:01:57.636Z,12.36
2023-04-22T02:04:25.806Z,12.29
2023-04-22T02:06:53.877Z,12.26
2023-04-22T02:09:22.214Z,12.18
2023-04-22T02:11:50.674Z,12.13
2023-04-22T02:14:19.094Z,12.12
2023-04-22T02:16:48.906Z,12.26
2023-04-22T02:19:17.310Z,12.15
2023-04-22T02:21:47.345Z,12.13
2023-04-22T02:24:15.683Z,12.10
2023-04-22T02:26:44.487Z,12.17
2023-04-22T02:29:12.716Z,12.18
2023-04-22T02:31:40.908Z,12.23
2023-04-22T02:34:10.946Z,12.18
2023-04-22T02:36:39.378Z,12.17
2023-04-22T02:39:07.896Z,12.20
2023-04-22T02:41:36.111Z,12.28
2023-04-22T02:44:04.444Z,12.31
2023-04-22T02:46:32.749Z,12.32
2023-04-22T02:49:01.117Z,12.37
2023-04-22T02:51:31.183Z,12.28
2023-04-22T02:54:00.321Z,12.11
2023-04-22T02:56:29.182Z,12.13
2023-04-22T02:58:57.931Z,12.01
2023-04-22T03:01:26.367Z,11.83
2023-04-22T03:03:55.465Z,11.98
2023-04-22T03:06:23.881Z,11.96
2023-04-22T03:08:53.899Z,12.14
2023-04-22T03:11:22.117Z,11.93
2023-04-22T03:13:50.255Z,12.08
2023-04-22T03:16:18.783Z,11.88
2023-04-22T03:18:47.133Z,11.90
2023-04-22T03:21:15.887Z,11.77
2023-04-22T03:23:44.305Z,11.72
2023-04-22T03:26:14.481Z,11.75
2023-04-22T03:28:42.614Z,11.78
2023-04-22T03:31:12.047Z,11.91
2023-04-22T03:33:40.930Z,11.97
2023-04-22T03:36:09.909Z,11.91
2023-04-22T03:38:38.273Z,11.88
2023-04-22T03:41:06.381Z,11.89
2023-04-22T03:43:36.383Z,11.80
2023-04-22T03:46:04.523Z,11.69
2023-04-22T03:48:35.818Z,11.79
2023-04-22T03:51:04.375Z,11.78
2023-04-22T03:53:32.571Z,11.83
2023-04-22T03:56:00.603Z,11.90
2023-04-22T03:58:28.750Z,11.65
2023-04-22T04:00:59.954Z,11.76
2023-04-22T04:03:30.432Z,11.90
2023-04-22T04:05:59.621Z,11.73
2023-04-22T04:08:28.380Z,11.66
2023-04-22T04:10:56.470Z,11.73
2023-04-22T04:13:24.949Z,11.76
2023-04-22T04:15:53.773Z,11.79
2023-04-22T04:18:25.092Z,11.80
2023-04-22T04:20:54.368Z,11.83
2023-04-22T04:23:23.554Z,11.81
2023-04-22T04:25:52.117Z,11.71
2023-04-22T04:28:20.740Z,11.69
2023-04-22T04:30:49.212Z,11.66
2023-04-22T04:33:17.941Z,11.74
2023-04-22T04:35:48.272Z,11.78
2023-04-22T04:38:16.836Z,11.77
2023-04-22T04:40:45.630Z,11.83
2023-04-22T04:43:14.698Z,11.89
2023-04-22T04:45:48.495Z,11.83
2023-04-22T04:48:20.092Z,11.76
2023-04-22T04:50:50.483Z,11.96
2023-04-22T04:53:18.482Z,11.87
2023-04-22T04:55:46.651Z,11.79
2023-04-22T04:58:14.833Z,11.69
2023-04-22T05:00:43.085Z,11.72
2023-04-22T05:03:11.207Z,11.90
2023-04-22T05:05:40.194Z,11.79
2023-04-22T05:08:10.038Z,11.81
2023-04-22T05:10:38.099Z,11.67
2023-04-22T05:13:07.154Z,11.55
2023-04-22T05:15:35.623Z,11.66
2023-04-22T05:18:03.873Z,11.86
2023-04-22T05:20:34.536Z,11.91
2023-04-22T05:23:04.326Z,11.93
2023-04-22T05:25:34.148Z,11.98
2023-04-22T05:28:02.269Z,12.07
2023-04-22T05:30:30.612Z,12.14
2023-04-22T05:32:58.959Z,12.15
2023-04-22T05:35:27.348Z,12.14
2023-04-22T05:37:55.353Z,12.26
2023-04-22T05:40:23.622Z,12.28
2023-04-22T05:42:53.157Z,12.27
2023-04-22T05:45:21.329Z,12.31
2023-04-22T05:47:49.383Z,12.16
2023-04-22T05:50:17.539Z,12.15
2023-04-22T05:52:45.622Z,12.11
2023-04-22T05:55:13.825Z,11.97
2023-04-22T05:57:42.015Z,11.96
2023-04-22T06:00:13.229Z,12.06
2023-04-22T06:02:41.658Z,12.13
2023-04-22T06:05:11.036Z,12.20
2023-04-22T06:07:39.389Z,12.16
2023-04-22T06:10:08.995Z,12.28
2023-04-22T06:12:37.555Z,12.39
2023-04-22T06:15:06.808Z,12.46
2023-04-22T06:17:36.343Z,12.59
2023-04-22T06:20:05.061Z,12.65
2023-04-22T06:22:33.226Z,12.69
2023-04-22T06:25:01.685Z,12.69
2023-04-22T06:27:29.810Z,12.45
2023-04-22T06:29:58.226Z,12.41
2023-04-22T06:32:26.372Z,12.62
2023-04-22T06:34:56.144Z,12.87
2023-04-22T06:37:24.427Z,12.83
2023-04-22T06:39:52.470Z,13.07
2023-04-22T06:42:20.406Z,13.35
2023-04-22T06:44:48.891Z,13.61
2023-04-22T06:47:17.288Z,13.85
2023-04-22T06:49:45.350Z,13.81
2023-04-22T06:52:14.856Z,13.75
2023-04-22T06:54:42.889Z,13.87
2023-04-22T06:57:11.094Z,13.90
2023-04-22T06:59:40.172Z,13.91
2023-04-22T07:02:09.032Z,13.87
2023-04-22T07:04:37.615Z,13.87
2023-04-22T07:07:06.146Z,13.86
2023-04-22T07:09:36.359Z,14.02
2023-04-22T07:12:04.462Z,13.97
2023-04-22T07:14:34.665Z,13.95
2023-04-22T07:17:02.782Z,14.06
2023-04-22T07:19:33.307Z,14.07
2023-04-22T07:22:03.463Z,14.14
2023-04-22T07:24:31.756Z,14.12
2023-04-22T07:27:02.521Z,14.28
2023-04-22T07:29:31.044Z,14.26
2023-04-22T07:32:01.013Z,14.44
2023-04-22T07:34:29.070Z,14.43
2023-04-22T07:36:57.150Z,14.55
2023-04-22T07:39:25.777Z,14.54
2023-04-22T07:41:54.211Z,14.64
2023-04-22T07:44:23.900Z,14.76
2023-04-22T07:46:52.381Z,14.99
2023-04-22T07:49:20.412Z,15.11
2023-04-22T07:51:48.632Z,15.29
2023-04-22T07:54:17.835Z,15.11
2023-04-22T07:56:46.100Z,15.29
2023-04-22T07:59:14.458Z,15.50
2023-04-22T08:01:46.330Z,15.55
2023-04-22T08:04:14.751Z,15.59
2023-04-22T08:06:43.958Z,15.80
2023-04-22T08:09:12.231Z,15.82
2023-04-22T08:11:40.636Z,15.90
2023-04-22T08:14:08.893Z,16.00
2023-04-22T08:16:37.133Z,15.99
2023-04-22T08:19:06.899Z,15.99
2023-04-22T08:21:37.284Z,15.96
2023-04-22T08:24:05.641Z,15.89
2023-04-22T08:26:34.440Z,15.94
2023-04-22T08:29:03.369Z,15.78
2023-04-22T08:31:31.462Z,15.99
2023-04-22T08:33:59.560Z,16.14
2023-04-22T08:36:30.014Z,16.36
2023-04-22T08:38:58.167Z,16.45
2023-04-22T08:41:27.945Z,16.62
2023-04-22T08:43:57.286Z,16.58
2023-04-22T08:46:27.155Z,16.62
2023-04-22T08:48:57.196Z,16.49
2023-04-22T08:51:25.774Z,16.87
2023-04-22T08:53:55.432Z,17.24
2023-04-22T08:56:23.906Z,17.34
2023-04-22T08:58:53.152Z,17.38
2023-04-22T09:01:21.775Z,17.49
2023-04-22T09:03:51.206Z,17.61
2023-04-22T09:06:22.638Z,17.63
2023-04-22T09:08:51.528Z,17.63
2023-04-22T09:11:21.319Z,17.66
2023-04-22T09:13:51.078Z,17.76
2023-04-22T09:16:19.586Z,17.86
2023-04-22T09:18:47.967Z,17.74
2023-04-22T09:21:16.356Z,17.92
2023-04-22T09:23:50.658Z,18.10
2023-04-22T09:26:23.667Z,18.18
2023-04-22T09:28:53.574Z,18.18
2023-04-22T09:31:23.400Z,18.41
2023-04-22T09:33:55.678Z,18.34
2023-04-22T09:36:27.443Z,18.47
2023-04-22T09:38:57.674Z,18.74
2023-04-22T09:41:32.193Z,19.00
2023-04-22T09:44:03.157Z,19.34
2023-04-22T09:46:33.868Z,19.31
2023-04-22T09:49:04.187Z,19.33
2023-04-22T09:51:33.060Z,19.48
2023-04-22T09:54:04.401Z,19.32
2023-04-22T09:56:44.944Z,19.61
2023-04-22T09:59:13.161Z,19.48
2023-04-22T10:01:43.995Z,19.69
2023-04-22T10:04:16.444Z,19.89
2023-04-22T10:06:44.628Z,19.88
2023-04-22T10:09:13.573Z,20.06
2023-04-22T10:11:43.519Z,20.04
2023-04-22T10:14:14.185Z,20.19
2023-04-22T10:16:44.633Z,20.22
2023-04-22T10:19:17.973Z,20.02
2023-04-22T10:21:49.783Z,19.95
2023-04-22T10:24:19.235Z,19.92
2023-04-22T10:27:01.903Z,20.07
2023-04-22T10:29:38.828Z,19.87
2023-04-22T10:32:26.255Z,19.79
2023-04-22T10:35:13.678Z,19.86
2023-04-22T10:37:46.495Z,19.86
2023-04-22T10:40:17.709Z,19.62
2023-04-22T10:42:52.474Z,19.89
2023-04-22T10:45:25.360Z,19.82
2023-04-22T10:47:53.822Z,19.89
2023-04-22T10:50:26.733Z,20.19
2023-04-22T10:52:59.817Z,20.36
2023-04-22T10:55:52.526Z,20.01
2023-04-22T10:58:24.666Z,20.24
2023-04-22T11:01:00.308Z,20.30
2023-04-22T11:03:31.066Z,20.44
2023-04-22T11:06:16.470Z,20.74
2023-04-22T11:08:51.000Z,20.60
2023-04-22T11:11:19.979Z,20.57
2023-04-22T11:13:52.067Z,20.66
2023-04-22T11:16:24.116Z,20.58
2023-04-22T11:18:52.541Z,20.73
2023-04-22T11:21:22.732Z,20.52
2023-04-22T11:23:54.614Z,20.67
2023-04-22T11:26:35.812Z,20.62
2023-04-22T11:29:05.586Z,20.87
2023-04-22T11:31:37.262Z,21.14
2023-04-22T11:34:05.841Z,21.40
2023-04-22T11:36:34.177Z,21.59
2023-04-22T11:39:02.767Z,21.53
2023-04-22T11:44:01.917Z,21.24
2023-04-22T11:46:38.588Z,22.37
2023-04-22T11:49:15.177Z,22.41
2023-04-22T11:51:56.928Z,21.86
2023-04-22T11:54:36.272Z,22.69
2023-04-22T11:57:06.549Z,22.79
2023-04-22T11:59:34.734Z,22.89
2023-04-22T12:02:08.576Z,22.85
2023-04-22T12:04:41.031Z,22.98
2023-04-22T12:07:09.465Z,23.06
2023-04-22T12:09:38.043Z,22.40
2023-04-22T12:12:07.996Z,22.65
2023-04-22T12:14:37.503Z,22.49
2023-04-22T12:17:10.839Z,22.70
2023-04-22T12:19:41.310Z,22.86
2023-04-22T12:22:09.876Z,22.76
2023-04-22T12:24:38.380Z,22.67
2023-04-22T12:27:14.517Z,23.17
2023-04-22T12:29:53.090Z,23.30
2023-04-22T12:32:24.902Z,22.54
2023-04-22T12:34:53.441Z,22.81
2023-04-22T12:37:21.806Z,21.66
2023-04-22T12:39:51.675Z,22.24
2023-04-22T12:42:20.166Z,22.78
2023-04-22T12:44:48.507Z,23.25
2023-04-22T12:47:18.284Z,23.72
2023-04-22T12:49:48.016Z,23.53
2023-04-22T12:52:17.929Z,23.58
2023-04-22T12:54:46.025Z,23.47
2023-04-22T12:57:15.439Z,23.93
2023-04-22T12:59:45.102Z,23.98
2023-04-22T13:02:13.253Z,23.89
2023-04-22T13:04:41.961Z,24.17
2023-04-22T13:07:12.591Z,24.31
2023-04-22T13:09:41.246Z,24.24
2023-04-22T13:12:10.346Z,24.40
2023-04-22T13:14:38.959Z,23.16
2023-04-22T13:17:07.577Z,23.30
2023-04-22T13:19:36.168Z,22.29
2023-04-22T13:22:05.034Z,22.71
2023-04-22T13:24:34.680Z,22.57
2023-04-22T13:27:02.956Z,22.54
2023-04-22T13:29:31.643Z,22.44
2023-04-22T13:32:00.013Z,22.72
2023-04-22T13:34:28.456Z,23.61
2023-04-22T13:36:57.105Z,24.01
2023-04-22T13:39:26.242Z,24.18
2023-04-22T13:41:57.120Z,24.35
2023-04-22T13:44:25.553Z,23.10
2023-04-22T13:46:53.984Z,22.14
2023-04-22T13:49:22.393Z,21.93
2023-04-22T13:51:51.164Z,21.82
2023-04-22T13:54:19.558Z,21.87
2023-04-22T13:56:48.801Z,22.16
2023-04-22T13:59:18.532Z,21.91
2023-04-22T14:01:48.203Z,21.56
2023-04-22T14:04:16.284Z,21.30
2023-04-22T14:06:44.663Z,21.33
2023-04-22T14:09:12.967Z,21.39
2023-04-22T14:11:41.231Z,21.53
2023-04-22T14:14:10.924Z,21.34
2023-04-22T14:16:40.594Z,21.17
2023-04-22T14:19:09.131Z,21.21
2023-04-22T14:21:37.634Z,20.95
2023-04-22T14:24:06.176Z,20.86
2023-04-22T14:26:34.651Z,20.82
2023-04-22T14:29:05.907Z,20.73
2023-04-22T14:31:34.985Z,20.61
2023-04-22T14:34:06.718Z,20.79
2023-04-22T14:36:35.607Z,20.49
2023-04-22T14:39:04.013Z,20.41
2023-04-22T14:41:32.432Z,20.36
2023-04-22T14:44:00.900Z,20.36
2023-04-22T14:46:30.171Z,20.15
2023-04-22T14:48:58.307Z,20.07
2023-04-22T14:51:30.201Z,20.11
2023-04-22T14:53:58.480Z,19.99
2023-04-22T14:56:26.943Z,19.89
2023-04-22T14:58:55.266Z,19.57
2023-04-22T15:01:23.634Z,19.36
2023-04-22T15:03:52.445Z,19.40
2023-04-22T15:06:21.255Z,19.38
2023-04-22T15:08:51.898Z,19.27
2023-04-22T15:11:20.412Z,19.17
2023-04-22T15:13:49.005Z,19.13
2023-04-22T15:16:17.563Z,19.22
2023-04-22T15:18:46.057Z,19.12
2023-04-22T15:21:15.891Z,19.09
2023-04-22T15:23:44.334Z,19.05
2023-04-22T15:26:15.237Z,19.12
2023-04-22T15:28:43.761Z,19.08
2023-04-22T15:31:11.917Z,19.04
2023-04-22T15:33:40.567Z,18.94
2023-04-22T15:36:09.840Z,18.92
2023-04-22T15:38:40.151Z,18.84
2023-04-22T15:41:08.534Z,18.83
2023-04-22T15:43:38.349Z,18.80
2023-04-22T15:46:08.644Z,18.77
2023-04-22T15:48:37.073Z,18.75
2023-04-22T15:51:05.701Z,18.80
2023-04-22T15:53:33.879Z,18.81
2023-04-22T15:56:02.895Z,18.74
2023-04-22T15:58:34.558Z,18.87
2023-04-22T16:01:15.308Z,18.71
2023-04-22T16:03:47.000Z,18.78
2023-04-22T16:06:16.723Z,18.97
2023-04-22T16:08:46.126Z,18.87
2023-04-22T16:11:15.886Z,19.04
2023-04-22T16:13:44.482Z,19.04
2023-04-22T16:16:14.374Z,19.23
2023-04-22T16:18:44.218Z,19.10
2023-04-22T16:21:12.758Z,19.20
2023-04-22T16:23:41.539Z,19.27
2023-04-22T16:26:11.337Z,19.26
2023-04-22T16:28:39.786Z,19.24
2023-04-22T16:31:10.741Z,19.24
2023-04-22T16:33:41.842Z,18.99
2023-04-22T16:36:11.803Z,19.11
2023-04-22T16:38:40.605Z,19.11
2023-04-22T16:41:11.540Z,19.00
2023-04-22T16:43:41.179Z,19.01
2023-04-22T16:46:09.651Z,19.06
2023-04-22T16:48:39.639Z,19.00
2023-04-22T16:51:07.931Z,19.01
2023-04-22T16:53:37.097Z,19.06
2023-04-22T16:56:05.938Z,18.98
2023-04-22T16:58:34.498Z,19.00
2023-04-22T17:01:03.376Z,19.02
2023-04-22T17:03:31.796Z,19.14
2023-04-22T17:06:02.052Z,19.12
2023-04-22T17:08:31.300Z,19.11
2023-04-22T17:10:59.592Z,18.96
2023-04-22T17:13:29.062Z,18.97
2023-04-22T17:15:57.357Z,18.82
2023-04-22T17:18:26.320Z,18.66
2023-04-22T17:20:56.281Z,18.66
2023-04-22T17:23:27.127Z,18.58
2023-04-22T17:25:55.136Z,18.25
2023-04-22T17:28:23.560Z,18.22
2023-04-22T17:30:52.201Z,18.33
2023-04-22T17:33:20.964Z,18.34
2023-04-22T17:35:50.772Z,18.14
2023-04-22T17:38:19.843Z,18.10
2023-04-22T17:40:49.377Z,18.05
2023-04-22T17:43:17.477Z,18.03
2023-04-22T17:45:45.709Z,17.82
2023-04-22T17:48:14.268Z,17.74
2023-04-22T17:50:42.677Z,17.80
2023-04-22T17:53:11.154Z,17.56
2023-04-22T17:55:39.557Z,17.61
2023-04-22T17:58:09.452Z,17.50
2023-04-22T18:00:38.875Z,17.52
2023-04-22T18:03:07.911Z,17.73
2023-04-22T18:05:43.300Z,17.55
2023-04-22T18:08:12.084Z,17.62
2023-04-22T18:10:40.850Z,17.71
2023-04-22T18:13:10.638Z,17.50
2023-04-22T18:15:38.878Z,17.57
2023-04-22T18:18:09.657Z,17.47
2023-04-22T18:20:37.967Z,17.60
2023-04-22T18:23:06.145Z,17.52
2023-04-22T18:25:34.550Z,17.26
2023-04-22T18:28:02.862Z,17.33
2023-04-22T18:30:32.926Z,17.20
2023-04-22T18:33:01.211Z,17.14
2023-04-22T18:35:30.717Z,17.42
2023-04-22T18:37:58.966Z,17.23
2023-04-22T18:40:28.427Z,17.22
2023-04-22T18:42:56.723Z,17.22
2023-04-22T18:45:25.405Z,17.20
2023-04-22T18:47:55.018Z,17.13
2023-04-22T18:50:23.493Z,17.19
2023-04-22T18:52:51.813Z,17.13
2023-04-22T18:55:20.335Z,17.10
2023-04-22T18:57:48.732Z,17.12
2023-04-22T19:00:17.918Z,17.15
2023-04-22T19:02:46.310Z,17.15
2023-04-22T19:05:18.212Z,17.09
2023-04-22T19:07:47.145Z,17.05
2023-04-22T19:10:15.375Z,17.08
2023-04-22T19:12:43.393Z,17.03
2023-04-22T19:15:13.198Z,17.04
2023-04-22T19:17:42.742Z,16.96
2023-04-22T19:20:12.076Z,16.96
2023-04-22T19:22:41.749Z,16.97
2023-04-22T19:25:10.597Z,16.97
2023-04-22T19:27:39.021Z,16.85
2023-04-22T19:30:12.217Z,16.88
2023-04-22T19:32:42.500Z,17.08
2023-04-22T19:35:16.405Z,17.20
2023-04-22T19:37:47.331Z,17.23
2023-04-22T19:40:18.592Z,17.23
2023-04-22T19:42:47.819Z,17.17
2023-04-22T19:45:16.034Z,17.24
2023-04-22T19:47:44.600Z,17.17
2023-04-22T19:50:13.653Z,17.09
2023-04-22T19:52:44.040Z,17.19
2023-04-22T19:55:15.167Z,17.11
2023-04-22T19:57:43.735Z,17.07
2023-04-22T20:00:15.412Z,16.94
2023-04-22T20:02:44.188Z,16.67
2023-04-22T20:05:13.258Z,16.80
2023-04-22T20:07:44.759Z,16.68
2023-04-22T20:10:16.031Z,16.67
2023-04-22T20:12:45.620Z,16.50
2023-04-22T20:15:14.605Z,16.46
2023-04-22T20:17:43.974Z,16.24
2023-04-22T20:20:15.724Z,16.03
2023-04-22T20:22:45.160Z,16.00
2023-04-22T20:25:17.386Z,16.00
2023-04-22T20:27:46.151Z,15.66
2023-04-22T20:30:15.182Z,15.80
2023-04-22T20:32:43.877Z,15.73
2023-04-22T20:35:15.259Z,15.72
2023-04-22T20:37:44.050Z,15.54
2023-04-22T20:40:15.332Z,15.55
2023-04-22T20:42:45.042Z,15.34
2023-04-22T20:45:16.008Z,15.14
2023-04-22T20:47:44.591Z,14.99
2023-04-22T20:50:14.120Z,15.04
2023-04-22T20:52:42.617Z,14.91
2023-04-22T20:55:11.372Z,14.87
2023-04-22T20:57:39.925Z,14.86
2023-04-22T21:00:12.729Z,14.77
2023-04-22T21:02:41.924Z,14.67
2023-04-22T21:05:12.063Z,14.77
2023-04-22T21:07:40.975Z,14.75
2023-04-22T21:10:10.808Z,14.68
2023-04-22T21:12:39.569Z,14.72
2023-04-22T21:15:12.960Z,14.74
2023-04-22T21:17:44.714Z,14.98
2023-04-22T21:20:13.439Z,15.01
2023-04-22T21:22:44.716Z,14.88
2023-04-22T21:25:21.929Z,14.86
2023-04-22T21:27:50.941Z,14.68
2023-04-22T21:30:22.470Z,14.41
2023-04-22T21:32:50.644Z,14.36
2023-04-22T21:35:18.801Z,14.42
2023-04-22T21:37:47.527Z,14.20
2023-04-22T21:40:15.666Z,14.21
2023-04-22T21:42:44.293Z,14.11
2023-04-22T21:45:13.252Z,14.18
2023-04-22T21:47:42.798Z,13.96
2023-04-22T21:50:11.564Z,13.94
2023-04-22T21:52:39.744Z,13.98
2023-04-22T21:55:09.318Z,14.00
2023-04-22T21:57:37.572Z,14.00
2023-04-22T22:00:08.871Z,13.96
2023-04-22T22:02:37.028Z,14.07
2023-04-22T22:05:08.226Z,14.16
2023-04-22T22:07:38.829Z,14.29
2023-04-22T22:10:08.428Z,14.12
2023-04-22T22:12:36.937Z,14.01
2023-04-22T22:15:06.660Z,13.91
2023-04-22T22:17:35.251Z,13.91
2023-04-22T22:20:04.397Z,13.82
2023-04-22T22:22:34.269Z,13.90
2023-04-22T22:25:02.431Z,13.82
2023-04-22T22:27:30.736Z,13.85
2023-04-22T22:29:58.796Z,13.86
2023-04-22T22:32:27.002Z,14.05
2023-04-22T22:34:55.588Z,14.28
2023-04-22T22:37:23.943Z,14.27
2023-04-22T22:39:54.254Z,14.15
2023-04-22T22:42:22.643Z,14.18
2023-04-22T22:44:50.823Z,14.29
2023-04-22T22:47:19.351Z,14.05
2023-04-22T22:49:47.449Z,14.10
2023-04-22T22:52:15.607Z,14.06
2023-04-22T22:54:44.121Z,14.15
2023-04-22T22:57:13.916Z,14.24
2023-04-22T22:59:42.089Z,14.05
2023-04-22T23:02:10.481Z,13.96
2023-04-22T23:04:39.711Z,14.11
2023-04-22T23:07:08.335Z,13.78
2023-04-22T23:09:36.478Z,13.89
2023-04-22T23:12:04.815Z,13.80
2023-04-22T23:14:36.635Z,13.81
2023-04-22T23:17:04.941Z,13.85
2023-04-22T23:19:34.608Z,13.91
2023-04-22T23:22:05.386Z,13.71
2023-04-22T23:24:36.382Z,13.72
2023-04-22T23:27:05.641Z,13.63
2023-04-22T23:29:37.139Z,13.67
2023-04-22T23:32:06.507Z,13.66
2023-04-22T23:34:35.592Z,13.72
2023-04-22T23:37:06.708Z,13.70
2023-04-22T23:39:34.978Z,13.82
2023-04-22T23:42:03.182Z,13.54
2023-04-22T23:44:31.305Z,13.76
2023-04-22T23:47:00.976Z,13.78
2023-04-22T23:49:29.741Z,13.81
2023-04-22T23:51:58.221Z,13.54
2023-04-22T23:54:26.925Z,13.71
2023-04-22T23:56:56.125Z,13.53
2023-04-22T23:59:24.847Z,13.72
